sensor_id;sensor_type;location;lat;lon;timestamp;pressure;altitude;pressure_sealevel;temperature;humidity
74346;BME280;62776;50.518;6.732;2022-10-22T00:02:25;96068.34;;;14.73;100.00
74346;BME280;62776;50.518;6.732;2022-10-22T00:05:12;96059.59;;;14.74;100.00
74346;BME280;62776;50.518;6.732;2022-10-22T00:07:58;96070.97;;;14.73;100.00
74346;BME280;62776;50.518;6.732;2022-10-22T00:10:44;96050.94;;;14.72;100.00
74346;BME280;62776;50.518;6.732;2022-10-22T00:13:30;96056.16;;;14.72;100.00
74346;BME280;62776;50.518;6.732;2022-10-22T00:16:16;96064.94;;;14.71;100.00
74346;BME280;62776;50.518;6.732;2022-10-22T00:19:03;96064.94;;;14.71;100.00
74346;BME280;62776;50.518;6.732;2022-10-22T00:21:49;96064.94;;;14.71;100.00
74346;BME280;62776;50.518;6.732;2022-10-22T00:24:36;96059.81;;;14.68;100.00
74346;BME280;62776;50.518;6.732;2022-10-22T00:27:22;96049.38;;;14.67;100.00
74346;BME280;62776;50.518;6.732;2022-10-22T00:30:09;96047.63;;;14.67;100.00
74346;BME280;62776;50.518;6.732;2022-10-22T00:32:55;96047.69;;;14.66;100.00
74346;BME280;62776;50.518;6.732;2022-10-22T00:35:42;96048.44;;;14.69;100.00
74346;BME280;62776;50.518;6.732;2022-10-22T00:38:28;96040.69;;;14.66;100.00
74346;BME280;62776;50.518;6.732;2022-10-22T00:41:14;96035.47;;;14.66;100.00
74346;BME280;62776;50.518;6.732;2022-10-22T00:44:04;96038.88;;;14.68;100.00
74346;BME280;62776;50.518;6.732;2022-10-22T00:46:51;96044.88;;;14.72;100.00
74346;BME280;62776;50.518;6.732;2022-10-22T00:49:37;96027.34;;;14.74;100.00
74346;BME280;62776;50.518;6.732;2022-10-22T00:52:23;96027.28;;;14.75;100.00
74346;BME280;62776;50.518;6.732;2022-10-22T00:55:09;96026.41;;;14.75;100.00
74346;BME280;62776;50.518;6.732;2022-10-22T00:57:57;96029.78;;;14.78;100.00
74346;BME280;62776;50.518;6.732;2022-10-22T01:00:43;96028.09;;;14.77;100.00
74346;BME280;62776;50.518;6.732;2022-10-22T01:03:31;96035.03;;;14.78;100.00
74346;BME280;62776;50.518;6.732;2022-10-22T01:06:29;96034.44;;;14.70;100.00
74346;BME280;62776;50.518;6.732;2022-10-22T01:21:59;96051.69;;;14.76;100.00
74346;BME280;62776;50.518;6.732;2022-10-22T01:30:59;96053.22;;;14.82;100.00
74346;BME280;62776;50.518;6.732;2022-10-22T01:33:48;96046.41;;;14.77;100.00
74346;BME280;62776;50.518;6.732;2022-10-22T01:36:37;96041.13;;;14.79;100.00
74346;BME280;62776;50.518;6.732;2022-10-22T01:39:25;96041.97;;;14.80;100.00
74346;BME280;62776;50.518;6.732;2022-10-22T01:42:13;96036.75;;;14.80;100.00
74346;BME280;62776;50.518;6.732;2022-10-22T01:44:59;96042.66;;;14.85;100.00
74346;BME280;62776;50.518;6.732;2022-10-22T01:51:20;96040.34;;;14.75;100.00
74346;BME280;62776;50.518;6.732;2022-10-22T02:00:10;96038.78;;;14.71;100.00
74346;BME280;62776;50.518;6.732;2022-10-22T02:03:10;96025.00;;;14.66;100.00
74346;BME280;62776;50.518;6.732;2022-10-22T02:06:02;96032.63;;;14.72;100.00
74346;BME280;62776;50.518;6.732;2022-10-22T02:08:52;96032.63;;;14.72;100.00
74346;BME280;62776;50.518;6.732;2022-10-22T02:11:39;96035.13;;;14.75;100.00
74346;BME280;62776;50.518;6.732;2022-10-22T02:14:28;96034.44;;;14.70;100.00
74346;BME280;62776;50.518;6.732;2022-10-22T02:17:18;96041.53;;;14.67;100.00
74346;BME280;62776;50.518;6.732;2022-10-22T02:20:15;96026.88;;;14.63;100.00
74346;BME280;62776;50.518;6.732;2022-10-22T02:23:03;96037.22;;;14.66;100.00
74346;BME280;62776;50.518;6.732;2022-10-22T02:26:01;96041.00;;;14.57;100.00
74346;BME280;62776;50.518;6.732;2022-10-22T02:31:43;96035.19;;;14.49;100.00
74346;BME280;62776;50.518;6.732;2022-10-22T02:34:31;96037.91;;;14.46;100.00
74346;BME280;62776;50.518;6.732;2022-10-22T02:37:18;96039.66;;;14.46;100.00
74346;BME280;62776;50.518;6.732;2022-10-22T02:40:06;96050.19;;;14.44;100.00
74346;BME280;62776;50.518;6.732;2022-10-22T02:42:53;96052.88;;;14.41;100.00
74346;BME280;62776;50.518;6.732;2022-10-22T02:45:39;96057.41;;;14.36;100.00
74346;BME280;62776;50.518;6.732;2022-10-22T02:48:25;96055.69;;;14.35;100.00
74346;BME280;62776;50.518;6.732;2022-10-22T02:51:11;96048.75;;;14.34;100.00
74346;BME280;62776;50.518;6.732;2022-10-22T02:53:57;96043.59;;;14.31;100.00
74346;BME280;62776;50.518;6.732;2022-10-22T02:56:43;96049.75;;;14.30;100.00
74346;BME280;62776;50.518;6.732;2022-10-22T02:59:29;96042.78;;;14.29;100.00
74346;BME280;62776;50.518;6.732;2022-10-22T03:02:15;96047.22;;;14.27;100.00
74346;BME280;62776;50.518;6.732;2022-10-22T03:05:02;96048.19;;;14.25;100.00
74346;BME280;62776;50.518;6.732;2022-10-22T03:07:48;96049.06;;;14.24;100.00
74346;BME280;62776;50.518;6.732;2022-10-22T03:10:34;96051.66;;;14.25;100.00
74346;BME280;62776;50.518;6.732;2022-10-22T03:13:20;96051.75;;;14.22;100.00
74346;BME280;62776;50.518;6.732;2022-10-22T03:16:06;96062.25;;;14.20;100.00
74346;BME280;62776;50.518;6.732;2022-10-22T03:18:53;96066.75;;;14.17;100.00
74346;BME280;62776;50.518;6.732;2022-10-22T03:22:27;96067.91;;;14.07;100.00
74346;BME280;62776;50.518;6.732;2022-10-22T03:24:58;96065.38;;;14.05;100.00
74346;BME280;62776;50.518;6.732;2022-10-22T03:27:45;96068.84;;;14.06;100.00
74346;BME280;62776;50.518;6.732;2022-10-22T03:30:32;96067.97;;;14.05;100.00
74346;BME280;62776;50.518;6.732;2022-10-22T03:33:18;96069.78;;;14.03;100.00
74346;BME280;62776;50.518;6.732;2022-10-22T03:36:05;96068.25;;;13.96;100.00
74346;BME280;62776;50.518;6.732;2022-10-22T03:38:53;96077.75;;;13.99;100.00
74346;BME280;62776;50.518;6.732;2022-10-22T03:41:39;96084.81;;;13.95;100.00
74346;BME280;62776;50.518;6.732;2022-10-22T03:44:27;96085.78;;;13.93;100.00
74346;BME280;62776;50.518;6.732;2022-10-22T03:47:13;96086.69;;;13.92;100.00
74346;BME280;62776;50.518;6.732;2022-10-22T03:49:59;96089.31;;;13.92;100.00
74346;BME280;62776;50.518;6.732;2022-10-22T03:52:45;96091.91;;;13.92;100.00
74346;BME280;62776;50.518;6.732;2022-10-22T03:55:31;96096.28;;;13.91;100.00
74346;BME280;62776;50.518;6.732;2022-10-22T03:58:17;96109.41;;;13.90;100.00
74346;BME280;62776;50.518;6.732;2022-10-22T04:01:08;96108.72;;;13.83;100.00
74346;BME280;62776;50.518;6.732;2022-10-22T04:03:55;96108.66;;;13.85;100.00
74346;BME280;62776;50.518;6.732;2022-10-22T04:06:41;96114.81;;;13.84;100.00
74346;BME280;62776;50.518;6.732;2022-10-22T04:09:29;96120.13;;;13.81;100.00
74346;BME280;62776;50.518;6.732;2022-10-22T04:12:15;96118.41;;;13.80;100.00
74346;BME280;62776;50.518;6.732;2022-10-22T04:15:02;96124.56;;;13.79;100.00
74346;BME280;62776;50.518;6.732;2022-10-22T04:17:48;96119.34;;;13.77;100.00
74346;BME280;62776;50.518;6.732;2022-10-22T04:20:34;96118.56;;;13.74;100.00
74346;BME280;62776;50.518;6.732;2022-10-22T04:23:20;96121.28;;;13.71;100.00
74346;BME280;62776;50.518;6.732;2022-10-22T04:26:07;96124.00;;;13.68;100.00
74346;BME280;62776;50.518;6.732;2022-10-22T04:28:53;96127.50;;;13.67;100.00
74346;BME280;62776;50.518;6.732;2022-10-22T04:31:39;96138.03;;;13.64;100.00
74346;BME280;62776;50.518;6.732;2022-10-22T04:34:28;96135.66;;;13.56;100.00
74346;BME280;62776;50.518;6.732;2022-10-22T04:37:14;96135.66;;;13.56;100.00
74346;BME280;62776;50.518;6.732;2022-10-22T04:40:00;96139.25;;;13.52;100.00
74346;BME280;62776;50.518;6.732;2022-10-22T04:42:47;96138.38;;;13.51;100.00
74346;BME280;62776;50.518;6.732;2022-10-22T04:45:34;96131.56;;;13.46;100.00
74346;BME280;62776;50.518;6.732;2022-10-22T04:48:20;96131.63;;;13.44;100.00
74346;BME280;62776;50.518;6.732;2022-10-22T04:51:08;96130.91;;;13.39;100.00
74346;BME280;62776;50.518;6.732;2022-10-22T04:53:56;96130.06;;;13.39;100.00
74346;BME280;62776;50.518;6.732;2022-10-22T04:56:42;96131.06;;;13.33;100.00
74346;BME280;62776;50.518;6.732;2022-10-22T04:59:28;96125.06;;;13.31;100.00
74346;BME280;62776;50.518;6.732;2022-10-22T05:02:14;96125.13;;;13.28;100.00
74346;BME280;62776;50.518;6.732;2022-10-22T05:05:00;96120.84;;;13.26;100.00
74346;BME280;62776;50.518;6.732;2022-10-22T05:07:46;96125.28;;;13.24;100.00
74346;BME280;62776;50.518;6.732;2022-10-22T05:10:32;96129.72;;;13.20;100.00
74346;BME280;62776;50.518;6.732;2022-10-22T05:13:18;96144.56;;;13.18;100.00
74346;BME280;62776;50.518;6.732;2022-10-22T05:16:04;96141.13;;;13.16;100.00
74346;BME280;62776;50.518;6.732;2022-10-22T05:18:51;96142.03;;;13.15;100.00
74346;BME280;62776;50.518;6.732;2022-10-22T05:21:38;96145.53;;;13.14;100.00
74346;BME280;62776;50.518;6.732;2022-10-22T05:24:25;96157.78;;;13.11;100.00
74346;BME280;62776;50.518;6.732;2022-10-22T05:27:11;96157.78;;;13.11;100.00
74346;BME280;62776;50.518;6.732;2022-10-22T05:29:57;96157.88;;;13.08;100.00
74346;BME280;62776;50.518;6.732;2022-10-22T05:32:43;96169.22;;;13.05;100.00
74346;BME280;62776;50.518;6.732;2022-10-22T05:35:29;96164.00;;;13.05;100.00
74346;BME280;62776;50.518;6.732;2022-10-22T05:38:16;96171.00;;;13.03;100.00
74346;BME280;62776;50.518;6.732;2022-10-22T05:43:55;96178.19;;;12.95;100.00
74346;BME280;62776;50.518;6.732;2022-10-22T05:46:41;96181.66;;;12.95;100.00
74346;BME280;62776;50.518;6.732;2022-10-22T05:49:28;96186.94;;;12.92;100.00
74346;BME280;62776;50.518;6.732;2022-10-22T05:52:14;96184.47;;;12.86;100.00
74346;BME280;62776;50.518;6.732;2022-10-22T05:55:00;96191.50;;;12.84;100.00
74346;BME280;62776;50.518;6.732;2022-10-22T05:57:46;96197.56;;;12.85;100.00
74346;BME280;62776;50.518;6.732;2022-10-22T06:00:34;96191.63;;;12.80;100.00
74346;BME280;62776;50.518;6.732;2022-10-22T06:03:20;96195.13;;;12.77;100.00
74346;BME280;62776;50.518;6.732;2022-10-22T06:06:31;96198.88;;;12.67;100.00
74346;BME280;62776;50.518;6.732;2022-10-22T06:09:28;96207.75;;;12.59;100.00
74346;BME280;62776;50.518;6.732;2022-10-22T06:12:15;96212.84;;;12.65;100.00
74346;BME280;62776;50.518;6.732;2022-10-22T06:15:01;96214.50;;;12.67;100.00
74346;BME280;62776;50.518;6.732;2022-10-22T06:17:48;96219.72;;;12.67;100.00
74346;BME280;62776;50.518;6.732;2022-10-22T06:20:34;96224.94;;;12.67;100.00
74346;BME280;62776;50.518;6.732;2022-10-22T06:23:20;96208.44;;;12.67;100.00
74346;BME280;62776;50.518;6.732;2022-10-22T06:26:07;96211.03;;;12.67;100.00
74346;BME280;62776;50.518;6.732;2022-10-22T06:28:55;96228.38;;;12.69;100.00
74346;BME280;62776;50.518;6.732;2022-10-22T06:31:41;96236.16;;;12.71;100.00
74346;BME280;62776;50.518;6.732;2022-10-22T06:34:27;96224.94;;;12.69;100.00
74346;BME280;62776;50.518;6.732;2022-10-22T06:37:13;96216.19;;;12.70;100.00
74346;BME280;62776;50.518;6.732;2022-10-22T06:40:00;96223.16;;;12.69;100.00
74346;BME280;62776;50.518;6.732;2022-10-22T06:42:46;96223.94;;;12.73;100.00
74346;BME280;62776;50.518;6.732;2022-10-22T06:45:32;96234.38;;;12.73;100.00
74346;BME280;62776;50.518;6.732;2022-10-22T06:48:18;96227.34;;;12.76;100.00
74346;BME280;62776;50.518;6.732;2022-10-22T06:51:07;96232.59;;;12.75;100.00
74346;BME280;62776;50.518;6.732;2022-10-22T06:53:55;96236.03;;;12.77;100.00
74346;BME280;62776;50.518;6.732;2022-10-22T06:56:41;96235.84;;;12.84;100.00
74346;BME280;62776;50.518;6.732;2022-10-22T06:59:27;96233.94;;;12.91;100.00
74346;BME280;62776;50.518;6.732;2022-10-22T07:02:13;96235.66;;;12.92;100.00
74346;BME280;62776;50.518;6.732;2022-10-22T07:05:00;96239.03;;;12.95;100.00
74346;BME280;62776;50.518;6.732;2022-10-22T07:07:46;96237.25;;;12.97;100.00
74346;BME280;62776;50.518;6.732;2022-10-22T07:10:32;96250.16;;;13.03;100.00
74346;BME280;62776;50.518;6.732;2022-10-22T07:13:18;96249.09;;;13.12;100.00
74346;BME280;62776;50.518;6.732;2022-10-22T07:16:05;96247.44;;;13.10;100.00
74346;BME280;62776;50.518;6.732;2022-10-22T07:18:51;96250.78;;;13.15;100.00
74346;BME280;62776;50.518;6.732;2022-10-22T07:21:38;96252.28;;;13.23;100.00
74346;BME280;62776;50.518;6.732;2022-10-22T07:24:24;96262.75;;;13.23;100.00
74346;BME280;62776;50.518;6.732;2022-10-22T07:27:10;96262.75;;;13.23;100.00
74346;BME280;62776;50.518;6.732;2022-10-22T07:29:56;96268.72;;;13.27;100.00
74346;BME280;62776;50.518;6.732;2022-10-22T07:32:45;96279.88;;;13.33;100.00
74346;BME280;62776;50.518;6.732;2022-10-22T07:35:31;96277.75;;;13.47;100.00
74346;BME280;62776;50.518;6.732;2022-10-22T07:38:19;96278.38;;;13.57;100.00
74346;BME280;62776;50.518;6.732;2022-10-22T07:41:05;96278.13;;;13.66;100.00
74346;BME280;62776;50.518;6.732;2022-10-22T07:43:51;96288.25;;;13.78;100.00
74346;BME280;62776;50.518;6.732;2022-10-22T07:46:37;96299.38;;;13.85;100.00
74346;BME280;62776;50.518;6.732;2022-10-22T07:49:23;96306.25;;;13.89;100.00
74346;BME280;62776;50.518;6.732;2022-10-22T07:52:09;96309.66;;;13.91;100.00
74346;BME280;62776;50.518;6.732;2022-10-22T07:54:55;96307.06;;;13.91;100.00
74346;BME280;62776;50.518;6.732;2022-10-22T07:57:41;96307.19;;;13.86;100.00
74346;BME280;62776;50.518;6.732;2022-10-22T08:00:30;96321.19;;;13.84;100.00
74346;BME280;62776;50.518;6.732;2022-10-22T08:03:17;96326.50;;;13.81;100.00
74346;BME280;62776;50.518;6.732;2022-10-22T08:06:04;96338.56;;;13.85;100.00
74346;BME280;62776;50.518;6.732;2022-10-22T08:08:50;96339.22;;;13.93;100.00
74346;BME280;62776;50.518;6.732;2022-10-22T08:11:36;96340.56;;;14.07;100.00
74346;BME280;62776;50.518;6.732;2022-10-22T08:14:23;96349.63;;;14.27;100.00
74346;BME280;62776;50.518;6.732;2022-10-22T08:17:09;96359.69;;;14.42;100.00
74346;BME280;62776;50.518;6.732;2022-10-22T08:19:55;96360.34;;;14.48;100.00
74346;BME280;62776;50.518;6.732;2022-10-22T08:22:41;96360.09;;;14.57;100.00
74346;BME280;62776;50.518;6.732;2022-10-22T08:25:27;96358.91;;;14.69;100.00
74346;BME280;62776;50.518;6.732;2022-10-22T08:28:13;96372.59;;;14.77;100.00
74346;BME280;62776;50.518;6.732;2022-10-22T08:30:59;96368.13;;;14.81;100.00
74346;BME280;62776;50.518;6.732;2022-10-22T08:33:45;96364.25;;;14.94;100.00
74346;BME280;62776;50.518;6.732;2022-10-22T08:36:32;96377.97;;;15.02;100.00
74346;BME280;62776;50.518;6.732;2022-10-22T08:39:18;96367.25;;;15.09;100.00
74346;BME280;62776;50.518;6.732;2022-10-22T08:45:07;96382.06;;;15.10;100.00
74346;BME280;62776;50.518;6.732;2022-10-22T08:51:02;96388.78;;;15.19;100.00
74346;BME280;62776;50.518;6.732;2022-10-22T08:54:13;96405.66;;;15.09;100.00
74346;BME280;62776;50.518;6.732;2022-10-22T09:00:19;96406.34;;;15.15;100.00
74346;BME280;62776;50.518;6.732;2022-10-22T09:03:27;96409.41;;;15.00;100.00
74346;BME280;62776;50.518;6.732;2022-10-22T09:09:14;96405.28;;;15.21;100.00
74346;BME280;62776;50.518;6.732;2022-10-22T09:12:02;96405.03;;;15.28;100.00
74346;BME280;62776;50.518;6.732;2022-10-22T09:14:49;96403.94;;;15.35;100.00
74346;BME280;62776;50.518;6.732;2022-10-22T09:20:49;96405.56;;;15.40;100.00
74346;BME280;62776;50.518;6.732;2022-10-22T09:24:04;96409.75;;;15.45;100.00
74346;BME280;62776;50.518;6.732;2022-10-22T09:26:51;96423.84;;;15.69;100.00
74346;BME280;62776;50.518;6.732;2022-10-22T09:29:38;96414.03;;;15.75;100.00
74346;BME280;62776;50.518;6.732;2022-10-22T09:32:24;96423.50;;;15.79;100.00
74346;BME280;62776;50.518;6.732;2022-10-22T09:35:12;96418.13;;;15.84;100.00
74346;BME280;62776;50.518;6.732;2022-10-22T09:38:06;96426.03;;;15.82;100.00
74346;BME280;62776;50.518;6.732;2022-10-22T09:40:55;96435.31;;;15.92;100.00
74346;BME280;62776;50.518;6.732;2022-10-22T09:43:42;96426.34;;;16.00;100.00
74346;BME280;62776;50.518;6.732;2022-10-22T09:46:37;96431.53;;;16.01;100.00
74346;BME280;62776;50.518;6.732;2022-10-22T09:49:33;96432.88;;;16.13;100.00
74346;BME280;62776;50.518;6.732;2022-10-22T09:52:27;96435.41;;;16.16;100.00
74346;BME280;62776;50.518;6.732;2022-10-22T09:55:18;96436.94;;;16.21;100.00
74346;BME280;62776;50.518;6.732;2022-10-22T09:58:08;96441.09;;;16.28;100.00
74346;BME280;62776;50.518;6.732;2022-10-22T10:01:00;96449.06;;;16.25;100.00
74346;BME280;62776;50.518;6.732;2022-10-22T10:03:47;96452.97;;;16.38;100.00
74346;BME280;62776;50.518;6.732;2022-10-22T10:06:35;96456.28;;;16.43;100.00
74346;BME280;62776;50.518;6.732;2022-10-22T10:09:25;96461.44;;;16.46;100.00
74346;BME280;62776;50.518;6.732;2022-10-22T10:12:21;96460.31;;;16.53;100.00
74346;BME280;62776;50.518;6.732;2022-10-22T10:22:00;96474.78;;;16.65;97.91
74346;BME280;62776;50.518;6.732;2022-10-22T10:28:24;96476.31;;;16.46;97.67
74346;BME280;62776;50.518;6.732;2022-10-22T10:31:34;96480.88;;;16.41;97.36
74346;BME280;62776;50.518;6.732;2022-10-22T10:43:58;96488.44;;;16.50;94.85
74346;BME280;62776;50.518;6.732;2022-10-22T10:49:45;96490.47;;;16.42;93.32
74346;BME280;62776;50.518;6.732;2022-10-22T10:59:12;96491.44;;;16.39;94.40
74346;BME280;62776;50.518;6.732;2022-10-22T11:08:37;96497.94;;;16.54;91.95
74346;BME280;62776;50.518;6.732;2022-10-22T11:11:47;96501.13;;;16.62;94.21
74346;BME280;62776;50.518;6.732;2022-10-22T11:14:38;96498.28;;;16.70;92.78
74346;BME280;62776;50.518;6.732;2022-10-22T11:17:39;96501.63;;;16.73;92.59
74346;BME280;62776;50.518;6.732;2022-10-22T11:30:14;96503.41;;;16.97;86.96
74346;BME280;62776;50.518;6.732;2022-10-22T11:33:04;96505.47;;;16.88;85.16
74346;BME280;62776;50.518;6.732;2022-10-22T11:35:52;96513.06;;;16.95;86.98
74346;BME280;62776;50.518;6.732;2022-10-22T11:38:38;96509.22;;;17.05;86.81
74346;BME280;62776;50.518;6.732;2022-10-22T11:41:27;96503.69;;;17.13;85.97
74346;BME280;62776;50.518;6.732;2022-10-22T11:44:22;96501.22;;;17.32;88.29
74346;BME280;62776;50.518;6.732;2022-10-22T11:47:24;96506.94;;;17.43;87.75
74346;BME280;62776;50.518;6.732;2022-10-22T11:50:20;96510.31;;;17.46;85.79
74346;BME280;62776;50.518;6.732;2022-10-22T11:53:16;96511.19;;;17.47;86.47
74346;BME280;62776;50.518;6.732;2022-10-22T11:58:54;96507.81;;;17.43;84.85
74346;BME280;62776;50.518;6.732;2022-10-22T12:01:41;96492.06;;;17.42;84.88
74346;BME280;62776;50.518;6.732;2022-10-22T12:04:40;96495.06;;;17.33;84.84
74346;BME280;62776;50.518;6.732;2022-10-22T12:07:54;96489.25;;;17.25;85.71
74346;BME280;62776;50.518;6.732;2022-10-22T12:10:54;96480.78;;;17.40;85.86
74346;BME280;62776;50.518;6.732;2022-10-22T12:14:12;96485.00;;;17.44;85.79
74346;BME280;62776;50.518;6.732;2022-10-22T12:17:09;96492.41;;;17.57;86.14
74346;BME280;62776;50.518;6.732;2022-10-22T12:20:10;96489.81;;;17.56;84.81
74346;BME280;62776;50.518;6.732;2022-10-22T12:22:58;96490.13;;;17.70;84.98
74346;BME280;62776;50.518;6.732;2022-10-22T12:25:44;96492.53;;;17.76;86.06
74346;BME280;62776;50.518;6.732;2022-10-22T12:28:38;96487.50;;;17.70;85.46
74346;BME280;62776;50.518;6.732;2022-10-22T12:31:25;96486.38;;;17.77;85.68
74346;BME280;62776;50.518;6.732;2022-10-22T12:34:22;96487.38;;;17.73;84.17
74346;BME280;62776;50.518;6.732;2022-10-22T12:37:10;96488.81;;;17.82;85.13
74346;BME280;62776;50.518;6.732;2022-10-22T12:39:56;96482.25;;;17.92;84.71
74346;BME280;62776;50.518;6.732;2022-10-22T12:42:52;96477.22;;;17.86;83.97
74346;BME280;62776;50.518;6.732;2022-10-22T12:45:43;96481.03;;;17.79;83.80
74346;BME280;62776;50.518;6.732;2022-10-22T12:48:32;96469.88;;;17.72;84.96
74346;BME280;62776;50.518;6.732;2022-10-22T12:51:22;96474.56;;;17.65;84.15
74346;BME280;62776;50.518;6.732;2022-10-22T12:54:14;96475.88;;;17.54;84.79
74346;BME280;62776;50.518;6.732;2022-10-22T12:57:02;96477.81;;;17.49;86.92
74346;BME280;62776;50.518;6.732;2022-10-22T12:59:50;96475.41;;;17.43;87.20
74346;BME280;62776;50.518;6.732;2022-10-22T13:02:36;96473.94;;;17.36;87.20
74346;BME280;62776;50.518;6.732;2022-10-22T13:05:25;96474.97;;;17.32;89.11
74346;BME280;62776;50.518;6.732;2022-10-22T13:08:16;96475.94;;;17.29;88.39
74346;BME280;62776;50.518;6.732;2022-10-22T13:11:10;96473.88;;;17.37;89.33
74346;BME280;62776;50.518;6.732;2022-10-22T13:17:19;96477.59;;;17.55;88.78
74346;BME280;62776;50.518;6.732;2022-10-22T13:20:22;96474.59;;;17.64;89.16
74346;BME280;62776;50.518;6.732;2022-10-22T13:23:19;96459.56;;;17.67;89.25
74346;BME280;62776;50.518;6.732;2022-10-22T13:26:16;96472.94;;;17.61;87.14
74346;BME280;62776;50.518;6.732;2022-10-22T13:29:09;96465.81;;;17.65;87.82
74346;BME280;62776;50.518;6.732;2022-10-22T13:31:56;96459.25;;;17.75;87.60
74346;BME280;62776;50.518;6.732;2022-10-22T13:34:43;96460.19;;;17.74;88.04
74346;BME280;62776;50.518;6.732;2022-10-22T13:37:31;96449.34;;;17.82;89.27
74346;BME280;62776;50.518;6.732;2022-10-22T13:40:19;96450.63;;;17.93;89.20
74346;BME280;62776;50.518;6.732;2022-10-22T13:43:05;96455.03;;;17.93;87.65
74346;BME280;62776;50.518;6.732;2022-10-22T13:46:01;96456.25;;;17.84;87.16
74346;BME280;62776;50.518;6.732;2022-10-22T13:48:49;96452.97;;;17.79;86.29
74346;BME280;62776;50.518;6.732;2022-10-22T13:51:38;96461.66;;;17.81;86.70
74346;BME280;62776;50.518;6.732;2022-10-22T13:54:24;96451.00;;;17.84;86.37
74346;BME280;62776;50.518;6.732;2022-10-22T13:57:10;96456.16;;;17.87;83.84
74346;BME280;62776;50.518;6.732;2022-10-22T13:59:56;96462.59;;;18.00;82.73
74346;BME280;62776;50.518;6.732;2022-10-22T14:02:43;96456.03;;;18.10;83.55
74346;BME280;62776;50.518;6.732;2022-10-22T14:05:31;96461.31;;;18.10;81.80
74346;BME280;62776;50.518;6.732;2022-10-22T14:08:21;96463.53;;;17.99;81.62
74346;BME280;62776;50.518;6.732;2022-10-22T14:11:11;96467.44;;;17.89;82.07
74346;BME280;62776;50.518;6.732;2022-10-22T14:13:58;96473.50;;;17.91;83.88
74346;BME280;62776;50.518;6.732;2022-10-22T14:16:44;96476.41;;;17.85;82.98
74346;BME280;62776;50.518;6.732;2022-10-22T14:19:30;96474.34;;;17.92;84.21
74346;BME280;62776;50.518;6.732;2022-10-22T14:22:18;96470.56;;;18.41;83.06
74346;BME280;62776;50.518;6.732;2022-10-22T14:25:04;96467.25;;;18.96;78.95
74346;BME280;62776;50.518;6.732;2022-10-22T14:27:51;96464.84;;;19.68;75.87
74346;BME280;62776;50.518;6.732;2022-10-22T14:30:38;96467.25;;;19.91;70.97
74346;BME280;62776;50.518;6.732;2022-10-22T14:33:27;96464.38;;;19.21;74.84
74346;BME280;62776;50.518;6.732;2022-10-22T14:36:15;96471.06;;;18.70;76.78
74346;BME280;62776;50.518;6.732;2022-10-22T14:39:02;96465.28;;;18.41;79.80
74346;BME280;62776;50.518;6.732;2022-10-22T14:41:48;96461.66;;;18.23;80.36
74346;BME280;62776;50.518;6.732;2022-10-22T14:44:34;96480.66;;;18.09;81.35
74346;BME280;62776;50.518;6.732;2022-10-22T14:47:20;96477.38;;;18.04;82.15
74346;BME280;62776;50.518;6.732;2022-10-22T14:50:06;96468.13;;;17.94;82.44
74346;BME280;62776;50.518;6.732;2022-10-22T14:52:52;96470.31;;;17.83;82.94
74346;BME280;62776;50.518;6.732;2022-10-22T14:55:39;96470.88;;;17.69;82.95
74346;BME280;62776;50.518;6.732;2022-10-22T14:58:26;96470.38;;;17.60;83.17
74346;BME280;62776;50.518;6.732;2022-10-22T15:01:12;96475.09;;;17.50;84.05
74346;BME280;62776;50.518;6.732;2022-10-22T15:03:58;96480.84;;;17.38;84.82
74346;BME280;62776;50.518;6.732;2022-10-22T15:06:44;96478.63;;;17.28;85.20
74346;BME280;62776;50.518;6.732;2022-10-22T15:09:30;96484.56;;;17.33;85.39
74346;BME280;62776;50.518;6.732;2022-10-22T15:12:16;96495.03;;;17.57;85.71
74346;BME280;62776;50.518;6.732;2022-10-22T15:15:03;96497.69;;;17.56;84.82
74346;BME280;62776;50.518;6.732;2022-10-22T15:17:49;96493.41;;;17.53;84.98
74346;BME280;62776;50.518;6.732;2022-10-22T15:20:35;96491.84;;;17.48;86.22
74346;BME280;62776;50.518;6.732;2022-10-22T15:23:21;96486.81;;;17.42;87.59
74346;BME280;62776;50.518;6.732;2022-10-22T15:26:09;96490.59;;;17.35;88.45
74346;BME280;62776;50.518;6.732;2022-10-22T15:28:55;96490.84;;;17.29;89.60
74346;BME280;62776;50.518;6.732;2022-10-22T15:31:48;96498.09;;;17.22;90.12
74346;BME280;62776;50.518;6.732;2022-10-22T15:34:34;96494.69;;;16.72;92.25
74346;BME280;62776;50.518;6.732;2022-10-22T15:37:21;96496.41;;;16.96;91.67
74346;BME280;62776;50.518;6.732;2022-10-22T15:40:07;96497.44;;;16.92;91.67
74346;BME280;62776;50.518;6.732;2022-10-22T15:42:53;96506.25;;;16.91;92.52
74346;BME280;62776;50.518;6.732;2022-10-22T15:45:39;96509.75;;;16.90;92.40
74346;BME280;62776;50.518;6.732;2022-10-22T15:48:25;96509.75;;;16.90;92.97
74346;BME280;62776;50.518;6.732;2022-10-22T15:51:16;96508.22;;;16.85;93.37
74346;BME280;62776;50.518;6.732;2022-10-22T15:54:03;96502.69;;;16.92;94.72
74346;BME280;62776;50.518;6.732;2022-10-22T15:56:49;96500.13;;;16.91;94.03
74346;BME280;62776;50.518;6.732;2022-10-22T15:59:36;96498.41;;;16.90;94.23
74346;BME280;62776;50.518;6.732;2022-10-22T16:02:22;96505.47;;;16.88;95.14
74346;BME280;62776;50.518;6.732;2022-10-22T16:05:08;96502.09;;;16.84;95.75
74346;BME280;62776;50.518;6.732;2022-10-22T16:07:54;96505.69;;;16.82;96.49
74346;BME280;62776;50.518;6.732;2022-10-22T16:10:45;96495.53;;;16.73;97.19
74346;BME280;62776;50.518;6.732;2022-10-22T16:13:33;96505.06;;;16.75;98.00
74346;BME280;62776;50.518;6.732;2022-10-22T16:16:22;96507.13;;;16.67;97.83
74346;BME280;62776;50.518;6.732;2022-10-22T16:19:10;96512.66;;;16.58;98.33
74346;BME280;62776;50.518;6.732;2022-10-22T16:21:57;96510.16;;;16.55;98.75
74346;BME280;62776;50.518;6.732;2022-10-22T16:24:44;96510.38;;;16.47;98.37
74346;BME280;62776;50.518;6.732;2022-10-22T16:27:31;96506.19;;;16.42;98.42